Kezdőlap
METAR-TAF:

METAR-TAF

Repülőterek :

Mikkeli, Finnország

földrajzi szélesség: 61-44N, földrajzi hosszúság: 027-18E, magasság: 138 m

Jelenlegi meteorológiai megfigyelések

A jelentés 18 perccel ezelõtt készült, 06:20 UTC
Nyugat-délnyugati szél 7 kt, délnyugati és nyugati között változik
Hőmérséklet 13°C
Páratartalom 41%
Légköri nyomás 1028 hPa
Látótávolság 10 km, vagy több
felhőtlen 1500 m magasságban, és nincs gomolyfelhõ

METAR: EFMI 240620Z AUTO 25007KT 220V280 CAVOK 13/M00 Q1028

Idő: 09:38 (06:38 UTC)


TAF: hiányzik

Meteorológiai megfigyelések és előrejelzések több, mint 4000 repülőtéren (METAR és TAF jelentéseket).

A térképen piros és sárga pontok jelzik az elérhető meteorológiai állomásokat.

Mozgassa az egeret a pont fölött, hogy megjelenjen az állomás neve.

Azután kattintson az időjárási megfigyelések és előrejelzések megtekintéséhez.

A térkép megváltoztatása: kattintson a fekete keresztel jelölt zöld gombra ráközelítéshez, a vonallal jelölt zöld gombra távolításhoz, vagy a zöld nyilakra a szomszédos térképek eléréséhez.


METAR-TAF: